sensor_id;sensor_type;location;lat;lon;timestamp;temperature;humidity
41756;DHT22;27435;48.480;9.258;2023-03-12T00:00:31;-1.70;99.00
41756;DHT22;27435;48.480;9.258;2023-03-12T00:02:57;-1.70;99.00
41756;DHT22;27435;48.480;9.258;2023-03-12T00:05:23;-1.70;99.00
41756;DHT22;27435;48.480;9.258;2023-03-12T00:07:50;-1.70;99.00
41756;DHT22;27435;48.480;9.258;2023-03-12T00:10:17;-1.80;99.00
41756;DHT22;27435;48.480;9.258;2023-03-12T00:12:42;-1.80;99.00
41756;DHT22;27435;48.480;9.258;2023-03-12T00:15:09;-1.70;99.00
41756;DHT22;27435;48.480;9.258;2023-03-12T00:17:34;-1.80;99.00
41756;DHT22;27435;48.480;9.258;2023-03-12T00:20:00;-1.80;99.00
41756;DHT22;27435;48.480;9.258;2023-03-12T00:22:26;-1.80;99.00
41756;DHT22;27435;48.480;9.258;2023-03-12T00:24:55;-1.80;99.00
41756;DHT22;27435;48.480;9.258;2023-03-12T00:27:22;-1.80;99.00
41756;DHT22;27435;48.480;9.258;2023-03-12T00:29:48;-1.70;99.00
41756;DHT22;27435;48.480;9.258;2023-03-12T00:32:14;-1.80;99.00
41756;DHT22;27435;48.480;9.258;2023-03-12T00:34:40;-1.70;99.00
41756;DHT22;27435;48.480;9.258;2023-03-12T00:37:06;-1.70;99.00
41756;DHT22;27435;48.480;9.258;2023-03-12T00:39:33;-1.70;99.00
41756;DHT22;27435;48.480;9.258;2023-03-12T00:41:58;-1.80;99.00
41756;DHT22;27435;48.480;9.258;2023-03-12T00:44:24;-1.90;99.00
41756;DHT22;27435;48.480;9.258;2023-03-12T00:46:50;-1.90;99.00
41756;DHT22;27435;48.480;9.258;2023-03-12T00:49:15;-2.00;99.00
41756;DHT22;27435;48.480;9.258;2023-03-12T00:51:41;-1.90;99.00
41756;DHT22;27435;48.480;9.258;2023-03-12T00:54:07;-2.00;99.00
41756;DHT22;27435;48.480;9.258;2023-03-12T00:56:33;-1.90;99.00
41756;DHT22;27435;48.480;9.258;2023-03-12T00:58:58;-2.00;99.00
41756;DHT22;27435;48.480;9.258;2023-03-12T01:01:24;-2.20;99.00
41756;DHT22;27435;48.480;9.258;2023-03-12T01:03:52;-2.10;99.00
41756;DHT22;27435;48.480;9.258;2023-03-12T01:06:18;-2.10;99.00
41756;DHT22;27435;48.480;9.258;2023-03-12T01:08:44;-2.20;99.00
41756;DHT22;27435;48.480;9.258;2023-03-12T01:11:14;-2.30;99.00
41756;DHT22;27435;48.480;9.258;2023-03-12T01:13:40;-2.10;99.00
41756;DHT22;27435;48.480;9.258;2023-03-12T01:16:06;-2.10;99.00
41756;DHT22;27435;48.480;9.258;2023-03-12T01:18:32;-2.10;99.00
41756;DHT22;27435;48.480;9.258;2023-03-12T01:20:57;-2.00;99.00
41756;DHT22;27435;48.480;9.258;2023-03-12T01:23:24;-2.00;99.00
41756;DHT22;27435;48.480;9.258;2023-03-12T01:25:49;-1.80;99.00
41756;DHT22;27435;48.480;9.258;2023-03-12T01:28:17;-1.70;99.00
41756;DHT22;27435;48.480;9.258;2023-03-12T01:30:42;-1.60;99.00
41756;DHT22;27435;48.480;9.258;2023-03-12T01:33:08;-1.60;99.00
41756;DHT22;27435;48.480;9.258;2023-03-12T01:35:38;-1.50;99.00
41756;DHT22;27435;48.480;9.258;2023-03-12T01:38:06;-1.50;99.00
41756;DHT22;27435;48.480;9.258;2023-03-12T01:40:33;-1.50;99.00
41756;DHT22;27435;48.480;9.258;2023-03-12T01:43:30;-1.30;99.00
41756;DHT22;27435;48.480;9.258;2023-03-12T01:48:46;-1.20;99.00
41756;DHT22;27435;48.480;9.258;2023-03-12T01:51:14;-1.10;99.00
41756;DHT22;27435;48.480;9.258;2023-03-12T01:53:44;-1.10;99.00
41756;DHT22;27435;48.480;9.258;2023-03-12T01:56:11;-1.00;99.00
41756;DHT22;27435;48.480;9.258;2023-03-12T01:58:39;-1.00;99.00
41756;DHT22;27435;48.480;9.258;2023-03-12T02:01:07;-0.90;99.00
41756;DHT22;27435;48.480;9.258;2023-03-12T02:03:34;-0.50;99.00
41756;DHT22;27435;48.480;9.258;2023-03-12T02:06:06;-0.50;99.00
41756;DHT22;27435;48.480;9.258;2023-03-12T02:08:38;-0.70;99.00
41756;DHT22;27435;48.480;9.258;2023-03-12T02:11:05;-0.60;99.00
41756;DHT22;27435;48.480;9.258;2023-03-12T02:13:31;-0.60;99.00
41756;DHT22;27435;48.480;9.258;2023-03-12T02:15:57;-0.70;99.00
41756;DHT22;27435;48.480;9.258;2023-03-12T02:18:22;-0.50;99.00
41756;DHT22;27435;48.480;9.258;2023-03-12T02:20:54;-0.50;99.00
41756;DHT22;27435;48.480;9.258;2023-03-12T02:26:08;-0.30;99.00
41756;DHT22;27435;48.480;9.258;2023-03-12T02:28:36;-0.10;99.00
41756;DHT22;27435;48.480;9.258;2023-03-12T02:31:08;-0.30;99.00
41756;DHT22;27435;48.480;9.258;2023-03-12T02:33:35;-0.10;99.00
41756;DHT22;27435;48.480;9.258;2023-03-12T02:36:00;-0.20;99.00
41756;DHT22;27435;48.480;9.258;2023-03-12T02:38:50;0.10;99.00
41756;DHT22;27435;48.480;9.258;2023-03-12T02:41:17;0.10;99.00
41756;DHT22;27435;48.480;9.258;2023-03-12T02:43:46;0.10;99.00
41756;DHT22;27435;48.480;9.258;2023-03-12T02:46:14;0.10;99.00
41756;DHT22;27435;48.480;9.258;2023-03-12T02:48:39;0.10;99.00
41756;DHT22;27435;48.480;9.258;2023-03-12T02:51:05;0.10;99.00
41756;DHT22;27435;48.480;9.258;2023-03-12T02:53:31;0.20;99.00
41756;DHT22;27435;48.480;9.258;2023-03-12T02:55:57;0.30;99.00
41756;DHT22;27435;48.480;9.258;2023-03-12T02:58:22;0.30;99.00
41756;DHT22;27435;48.480;9.258;2023-03-12T03:00:48;0.40;99.00
41756;DHT22;27435;48.480;9.258;2023-03-12T03:03:14;0.50;99.00
41756;DHT22;27435;48.480;9.258;2023-03-12T03:05:40;0.40;99.00
41756;DHT22;27435;48.480;9.258;2023-03-12T03:08:05;0.60;99.00
41756;DHT22;27435;48.480;9.258;2023-03-12T03:10:31;0.60;99.00
41756;DHT22;27435;48.480;9.258;2023-03-12T03:12:57;0.80;99.00
41756;DHT22;27435;48.480;9.258;2023-03-12T03:15:22;0.70;99.00
41756;DHT22;27435;48.480;9.258;2023-03-12T03:17:48;0.80;99.00
41756;DHT22;27435;48.480;9.258;2023-03-12T03:20:14;0.80;99.00
41756;DHT22;27435;48.480;9.258;2023-03-12T03:22:40;0.90;99.00
41756;DHT22;27435;48.480;9.258;2023-03-12T03:25:07;0.80;99.00
41756;DHT22;27435;48.480;9.258;2023-03-12T03:27:33;0.90;99.00
41756;DHT22;27435;48.480;9.258;2023-03-12T03:29:59;1.00;99.00
41756;DHT22;27435;48.480;9.258;2023-03-12T03:32:25;1.00;99.00
41756;DHT22;27435;48.480;9.258;2023-03-12T03:34:50;1.10;99.00
41756;DHT22;27435;48.480;9.258;2023-03-12T03:37:16;1.00;99.00
41756;DHT22;27435;48.480;9.258;2023-03-12T03:39:42;1.00;99.00
41756;DHT22;27435;48.480;9.258;2023-03-12T03:42:07;0.80;99.00
41756;DHT22;27435;48.480;9.258;2023-03-12T03:44:33;1.00;99.00
41756;DHT22;27435;48.480;9.258;2023-03-12T03:46:59;0.90;99.00
41756;DHT22;27435;48.480;9.258;2023-03-12T03:49:25;1.00;99.00
41756;DHT22;27435;48.480;9.258;2023-03-12T03:51:50;1.00;99.00
41756;DHT22;27435;48.480;9.258;2023-03-12T03:54:16;1.00;99.00
41756;DHT22;27435;48.480;9.258;2023-03-12T03:56:43;1.10;99.00
41756;DHT22;27435;48.480;9.258;2023-03-12T03:59:09;1.20;99.00
41756;DHT22;27435;48.480;9.258;2023-03-12T04:01:34;1.30;99.00
41756;DHT22;27435;48.480;9.258;2023-03-12T04:04:01;1.40;99.00
41756;DHT22;27435;48.480;9.258;2023-03-12T04:06:27;1.40;99.00
41756;DHT22;27435;48.480;9.258;2023-03-12T04:08:55;1.50;99.00
41756;DHT22;27435;48.480;9.258;2023-03-12T04:11:21;1.60;99.00
41756;DHT22;27435;48.480;9.258;2023-03-12T04:13:47;1.60;99.00
41756;DHT22;27435;48.480;9.258;2023-03-12T04:16:14;1.60;99.00
41756;DHT22;27435;48.480;9.258;2023-03-12T04:18:40;1.60;99.00
41756;DHT22;27435;48.480;9.258;2023-03-12T04:21:07;1.50;99.00
41756;DHT22;27435;48.480;9.258;2023-03-12T04:23:33;1.60;99.00
41756;DHT22;27435;48.480;9.258;2023-03-12T04:25:59;1.80;99.00
41756;DHT22;27435;48.480;9.258;2023-03-12T04:28:25;2.00;99.00
41756;DHT22;27435;48.480;9.258;2023-03-12T04:30:58;2.10;99.00
41756;DHT22;27435;48.480;9.258;2023-03-12T04:33:28;2.10;99.00
41756;DHT22;27435;48.480;9.258;2023-03-12T04:35:54;2.10;99.00
41756;DHT22;27435;48.480;9.258;2023-03-12T04:38:21;2.10;99.00
41756;DHT22;27435;48.480;9.258;2023-03-12T04:41:07;2.20;99.00
41756;DHT22;27435;48.480;9.258;2023-03-12T04:43:33;2.20;99.00
41756;DHT22;27435;48.480;9.258;2023-03-12T04:45:59;2.20;98.70
41756;DHT22;27435;48.480;9.258;2023-03-12T04:48:25;2.30;98.80
41756;DHT22;27435;48.480;9.258;2023-03-12T04:50:51;2.40;98.80
41756;DHT22;27435;48.480;9.258;2023-03-12T04:53:17;2.50;98.80
41756;DHT22;27435;48.480;9.258;2023-03-12T04:55:43;2.50;98.50
41756;DHT22;27435;48.480;9.258;2023-03-12T04:58:08;2.60;98.20
41756;DHT22;27435;48.480;9.258;2023-03-12T05:00:34;2.70;97.90
41756;DHT22;27435;48.480;9.258;2023-03-12T05:03:00;2.70;98.00
41756;DHT22;27435;48.480;9.258;2023-03-12T05:05:26;2.80;98.20
41756;DHT22;27435;48.480;9.258;2023-03-12T05:07:51;2.80;97.80
41756;DHT22;27435;48.480;9.258;2023-03-12T05:10:17;2.90;97.30
41756;DHT22;27435;48.480;9.258;2023-03-12T05:12:43;2.90;97.20
41756;DHT22;27435;48.480;9.258;2023-03-12T05:15:09;2.90;97.70
41756;DHT22;27435;48.480;9.258;2023-03-12T05:17:34;2.90;97.00
41756;DHT22;27435;48.480;9.258;2023-03-12T05:20:00;2.90;97.10
41756;DHT22;27435;48.480;9.258;2023-03-12T05:22:25;2.90;97.00
41756;DHT22;27435;48.480;9.258;2023-03-12T05:24:51;2.90;97.40
41756;DHT22;27435;48.480;9.258;2023-03-12T05:27:17;2.90;97.40
41756;DHT22;27435;48.480;9.258;2023-03-12T05:29:43;2.90;97.70
41756;DHT22;27435;48.480;9.258;2023-03-12T05:32:08;2.90;98.00
41756;DHT22;27435;48.480;9.258;2023-03-12T05:34:34;2.80;98.40
41756;DHT22;27435;48.480;9.258;2023-03-12T05:37:00;2.80;99.00
41756;DHT22;27435;48.480;9.258;2023-03-12T05:39:25;2.80;99.00
41756;DHT22;27435;48.480;9.258;2023-03-12T05:41:51;2.90;99.00
41756;DHT22;27435;48.480;9.258;2023-03-12T05:44:21;2.90;99.00
41756;DHT22;27435;48.480;9.258;2023-03-12T05:46:47;2.90;99.00
41756;DHT22;27435;48.480;9.258;2023-03-12T05:49:12;2.90;99.00
41756;DHT22;27435;48.480;9.258;2023-03-12T05:51:38;3.00;99.00
41756;DHT22;27435;48.480;9.258;2023-03-12T05:54:04;3.10;99.00
41756;DHT22;27435;48.480;9.258;2023-03-12T05:56:30;3.00;99.00
41756;DHT22;27435;48.480;9.258;2023-03-12T05:58:56;3.00;99.00
41756;DHT22;27435;48.480;9.258;2023-03-12T06:01:24;3.10;99.00
41756;DHT22;27435;48.480;9.258;2023-03-12T06:03:50;3.10;99.00
41756;DHT22;27435;48.480;9.258;2023-03-12T06:06:16;3.00;99.00
41756;DHT22;27435;48.480;9.258;2023-03-12T06:08:42;3.10;99.00
41756;DHT22;27435;48.480;9.258;2023-03-12T06:11:08;3.10;99.00
41756;DHT22;27435;48.480;9.258;2023-03-12T06:13:37;3.10;99.00
41756;DHT22;27435;48.480;9.258;2023-03-12T06:16:23;3.10;99.00
41756;DHT22;27435;48.480;9.258;2023-03-12T06:18:56;3.10;99.00
41756;DHT22;27435;48.480;9.258;2023-03-12T06:21:27;3.10;99.00
41756;DHT22;27435;48.480;9.258;2023-03-12T06:23:53;3.10;99.00
41756;DHT22;27435;48.480;9.258;2023-03-12T06:26:20;3.30;99.00
41756;DHT22;27435;48.480;9.258;2023-03-12T06:28:46;3.40;99.00
41756;DHT22;27435;48.480;9.258;2023-03-12T06:31:12;3.50;99.00
41756;DHT22;27435;48.480;9.258;2023-03-12T06:33:38;3.50;99.00
41756;DHT22;27435;48.480;9.258;2023-03-12T06:36:05;3.80;99.00
41756;DHT22;27435;48.480;9.258;2023-03-12T06:38:32;3.80;99.00
41756;DHT22;27435;48.480;9.258;2023-03-12T06:41:00;3.90;99.00
41756;DHT22;27435;48.480;9.258;2023-03-12T06:43:28;3.90;99.00
41756;DHT22;27435;48.480;9.258;2023-03-12T06:45:55;3.80;99.00
41756;DHT22;27435;48.480;9.258;2023-03-12T06:48:22;3.80;99.00
41756;DHT22;27435;48.480;9.258;2023-03-12T06:50:48;3.80;99.00
41756;DHT22;27435;48.480;9.258;2023-03-12T06:53:13;3.80;99.00
41756;DHT22;27435;48.480;9.258;2023-03-12T06:55:39;3.70;99.00
41756;DHT22;27435;48.480;9.258;2023-03-12T06:58:05;3.70;99.00
41756;DHT22;27435;48.480;9.258;2023-03-12T07:00:31;3.70;99.00
41756;DHT22;27435;48.480;9.258;2023-03-12T07:02:57;3.70;99.00
41756;DHT22;27435;48.480;9.258;2023-03-12T07:05:23;3.80;99.00
41756;DHT22;27435;48.480;9.258;2023-03-12T07:07:49;4.00;99.00
41756;DHT22;27435;48.480;9.258;2023-03-12T07:10:15;4.00;99.00
41756;DHT22;27435;48.480;9.258;2023-03-12T07:12:41;4.00;99.00
41756;DHT22;27435;48.480;9.258;2023-03-12T07:15:07;4.10;99.00
41756;DHT22;27435;48.480;9.258;2023-03-12T07:17:32;4.20;99.00
41756;DHT22;27435;48.480;9.258;2023-03-12T07:19:58;4.30;99.00
41756;DHT22;27435;48.480;9.258;2023-03-12T07:22:24;4.40;99.00
41756;DHT22;27435;48.480;9.258;2023-03-12T07:24:50;4.50;99.00
41756;DHT22;27435;48.480;9.258;2023-03-12T07:27:16;4.50;99.00
41756;DHT22;27435;48.480;9.258;2023-03-12T07:29:42;4.40;99.00
41756;DHT22;27435;48.480;9.258;2023-03-12T07:32:08;4.40;99.00
41756;DHT22;27435;48.480;9.258;2023-03-12T07:34:34;4.40;99.00
41756;DHT22;27435;48.480;9.258;2023-03-12T07:37:00;4.50;99.00
41756;DHT22;27435;48.480;9.258;2023-03-12T07:39:25;4.60;99.00
41756;DHT22;27435;48.480;9.258;2023-03-12T07:41:51;4.60;99.00
41756;DHT22;27435;48.480;9.258;2023-03-12T07:44:17;4.80;99.00
41756;DHT22;27435;48.480;9.258;2023-03-12T07:46:43;4.90;99.00
41756;DHT22;27435;48.480;9.258;2023-03-12T07:49:08;5.10;99.00
41756;DHT22;27435;48.480;9.258;2023-03-12T07:51:34;5.10;99.00
41756;DHT22;27435;48.480;9.258;2023-03-12T07:54:00;5.10;99.00
41756;DHT22;27435;48.480;9.258;2023-03-12T07:56:26;5.30;99.00
41756;DHT22;27435;48.480;9.258;2023-03-12T07:58:52;5.30;99.00
41756;DHT22;27435;48.480;9.258;2023-03-12T08:01:17;5.50;99.00
41756;DHT22;27435;48.480;9.258;2023-03-12T08:03:43;5.70;99.00
41756;DHT22;27435;48.480;9.258;2023-03-12T08:06:09;5.90;99.00
41756;DHT22;27435;48.480;9.258;2023-03-12T08:08:34;6.20;99.00
41756;DHT22;27435;48.480;9.258;2023-03-12T08:11:03;6.40;99.00
41756;DHT22;27435;48.480;9.258;2023-03-12T08:13:29;6.40;99.00
41756;DHT22;27435;48.480;9.258;2023-03-12T08:15:55;6.60;99.00
41756;DHT22;27435;48.480;9.258;2023-03-12T08:18:21;7.00;99.00
41756;DHT22;27435;48.480;9.258;2023-03-12T08:20:50;7.30;99.00
41756;DHT22;27435;48.480;9.258;2023-03-12T08:23:16;7.70;99.00
41756;DHT22;27435;48.480;9.258;2023-03-12T08:25:47;7.80;99.00
41756;DHT22;27435;48.480;9.258;2023-03-12T08:28:17;7.80;99.00
41756;DHT22;27435;48.480;9.258;2023-03-12T08:30:52;7.90;99.00
41756;DHT22;27435;48.480;9.258;2023-03-12T08:33:18;8.10;99.00
41756;DHT22;27435;48.480;9.258;2023-03-12T08:35:45;7.90;99.00
41756;DHT22;27435;48.480;9.258;2023-03-12T08:38:10;7.70;99.00
41756;DHT22;27435;48.480;9.258;2023-03-12T08:40:36;8.10;99.00
41756;DHT22;27435;48.480;9.258;2023-03-12T08:43:02;8.10;99.00
41756;DHT22;27435;48.480;9.258;2023-03-12T08:45:28;7.90;99.00
41756;DHT22;27435;48.480;9.258;2023-03-12T08:47:54;7.90;99.00
41756;DHT22;27435;48.480;9.258;2023-03-12T08:50:20;7.70;99.00
41756;DHT22;27435;48.480;9.258;2023-03-12T08:52:47;7.80;99.00
41756;DHT22;27435;48.480;9.258;2023-03-12T08:55:13;7.90;99.00
41756;DHT22;27435;48.480;9.258;2023-03-12T08:57:39;7.50;99.00
41756;DHT22;27435;48.480;9.258;2023-03-12T09:00:06;7.60;99.00
41756;DHT22;27435;48.480;9.258;2023-03-12T09:02:36;7.80;99.00
41756;DHT22;27435;48.480;9.258;2023-03-12T09:05:02;8.00;99.00
41756;DHT22;27435;48.480;9.258;2023-03-12T09:07:30;7.90;99.00
41756;DHT22;27435;48.480;9.258;2023-03-12T09:09:56;7.90;99.00
41756;DHT22;27435;48.480;9.258;2023-03-12T09:12:22;8.10;99.00
41756;DHT22;27435;48.480;9.258;2023-03-12T09:14:48;8.30;99.00
41756;DHT22;27435;48.480;9.258;2023-03-12T09:17:14;8.50;99.00
41756;DHT22;27435;48.480;9.258;2023-03-12T09:19:39;8.40;99.00
41756;DHT22;27435;48.480;9.258;2023-03-12T09:22:05;8.50;99.00
41756;DHT22;27435;48.480;9.258;2023-03-12T09:24:31;8.20;99.00
41756;DHT22;27435;48.480;9.258;2023-03-12T09:26:58;8.30;99.00
41756;DHT22;27435;48.480;9.258;2023-03-12T09:29:23;8.20;99.00
41756;DHT22;27435;48.480;9.258;2023-03-12T09:31:50;8.40;99.00
41756;DHT22;27435;48.480;9.258;2023-03-12T09:34:16;8.50;99.00
41756;DHT22;27435;48.480;9.258;2023-03-12T09:36:42;8.50;99.00
41756;DHT22;27435;48.480;9.258;2023-03-12T09:39:08;8.80;99.00
41756;DHT22;27435;48.480;9.258;2023-03-12T09:41:37;8.80;99.00
41756;DHT22;27435;48.480;9.258;2023-03-12T09:46:37;8.90;99.00
41756;DHT22;27435;48.480;9.258;2023-03-12T09:49:10;9.00;99.00
41756;DHT22;27435;48.480;9.258;2023-03-12T09:51:43;8.70;99.00
41756;DHT22;27435;48.480;9.258;2023-03-12T09:54:23;8.70;99.00
41756;DHT22;27435;48.480;9.258;2023-03-12T09:56:54;8.70;99.00
41756;DHT22;27435;48.480;9.258;2023-03-12T09:59:22;8.90;99.00
41756;DHT22;27435;48.480;9.258;2023-03-12T10:01:57;9.20;99.00
41756;DHT22;27435;48.480;9.258;2023-03-12T10:04:39;9.70;99.00
41756;DHT22;27435;48.480;9.258;2023-03-12T10:07:08;9.50;99.00
41756;DHT22;27435;48.480;9.258;2023-03-12T10:13:12;9.40;99.00
41756;DHT22;27435;48.480;9.258;2023-03-12T10:15:36;9.50;99.00
41756;DHT22;27435;48.480;9.258;2023-03-12T10:21:12;9.40;99.00
41756;DHT22;27435;48.480;9.258;2023-03-12T10:24:04;9.70;99.00
41756;DHT22;27435;48.480;9.258;2023-03-12T10:26:38;9.80;99.00
41756;DHT22;27435;48.480;9.258;2023-03-12T10:29:26;9.60;99.00
41756;DHT22;27435;48.480;9.258;2023-03-12T10:32:03;9.50;99.00
41756;DHT22;27435;48.480;9.258;2023-03-12T10:34:33;9.40;99.00
41756;DHT22;27435;48.480;9.258;2023-03-12T10:39:48;9.60;99.00
41756;DHT22;27435;48.480;9.258;2023-03-12T10:42:20;9.50;99.00
41756;DHT22;27435;48.480;9.258;2023-03-12T10:44:52;9.50;99.00
41756;DHT22;27435;48.480;9.258;2023-03-12T10:47:33;9.70;99.00
41756;DHT22;27435;48.480;9.258;2023-03-12T10:50:24;9.90;99.00
41756;DHT22;27435;48.480;9.258;2023-03-12T10:52:51;10.10;99.00
41756;DHT22;27435;48.480;9.258;2023-03-12T10:55:24;9.90;99.00
41756;DHT22;27435;48.480;9.258;2023-03-12T10:57:52;9.60;99.00
41756;DHT22;27435;48.480;9.258;2023-03-12T11:00:26;9.60;99.00
41756;DHT22;27435;48.480;9.258;2023-03-12T11:03:05;9.70;99.00
41756;DHT22;27435;48.480;9.258;2023-03-12T11:05:36;9.70;99.00
41756;DHT22;27435;48.480;9.258;2023-03-12T11:10:45;9.70;99.00
41756;DHT22;27435;48.480;9.258;2023-03-12T11:13:27;9.70;99.00
41756;DHT22;27435;48.480;9.258;2023-03-12T11:15:55;9.70;99.00
41756;DHT22;27435;48.480;9.258;2023-03-12T11:18:35;9.70;99.00
41756;DHT22;27435;48.480;9.258;2023-03-12T11:23:34;9.70;99.00
41756;DHT22;27435;48.480;9.258;2023-03-12T11:26:13;9.70;99.00
41756;DHT22;27435;48.480;9.258;2023-03-12T11:28:45;9.80;99.00
41756;DHT22;27435;48.480;9.258;2023-03-12T11:31:24;9.90;99.00
41756;DHT22;27435;48.480;9.258;2023-03-12T11:33:54;10.00;99.00
41756;DHT22;27435;48.480;9.258;2023-03-12T11:42:05;9.90;99.00
41756;DHT22;27435;48.480;9.258;2023-03-12T11:44:50;10.00;99.00
41756;DHT22;27435;48.480;9.258;2023-03-12T11:48:27;10.00;99.00
41756;DHT22;27435;48.480;9.258;2023-03-12T12:25:20;11.50;89.80
41756;DHT22;27435;48.480;9.258;2023-03-12T12:35:48;11.90;87.90
41756;DHT22;27435;48.480;9.258;2023-03-12T12:40:52;12.00;86.50
41756;DHT22;27435;48.480;9.258;2023-03-12T12:43:29;11.70;87.70
41756;DHT22;27435;48.480;9.258;2023-03-12T12:46:21;11.60;88.20
41756;DHT22;27435;48.480;9.258;2023-03-12T12:48:45;11.50;88.30
41756;DHT22;27435;48.480;9.258;2023-03-12T12:51:14;11.50;88.10
41756;DHT22;27435;48.480;9.258;2023-03-12T12:56:14;12.30;86.20
41756;DHT22;27435;48.480;9.258;2023-03-12T13:01:30;13.30;83.20
41756;DHT22;27435;48.480;9.258;2023-03-12T13:04:05;13.10;83.00
41756;DHT22;27435;48.480;9.258;2023-03-12T13:06:53;13.40;83.20
41756;DHT22;27435;48.480;9.258;2023-03-12T13:09:23;13.70;81.60
41756;DHT22;27435;48.480;9.258;2023-03-12T13:12:06;13.00;81.20
41756;DHT22;27435;48.480;9.258;2023-03-12T13:14:39;12.50;83.00
41756;DHT22;27435;48.480;9.258;2023-03-12T13:17:07;12.50;83.10
41756;DHT22;27435;48.480;9.258;2023-03-12T13:19:44;12.20;83.00
41756;DHT22;27435;48.480;9.258;2023-03-12T13:27:40;12.60;81.80
41756;DHT22;27435;48.480;9.258;2023-03-12T13:43:08;12.20;81.20
41756;DHT22;27435;48.480;9.258;2023-03-12T13:48:46;12.10;81.90
41756;DHT22;27435;48.480;9.258;2023-03-12T13:51:17;12.00;82.30
41756;DHT22;27435;48.480;9.258;2023-03-12T13:53:49;11.80;83.20
41756;DHT22;27435;48.480;9.258;2023-03-12T13:56:18;11.70;83.80
41756;DHT22;27435;48.480;9.258;2023-03-12T13:59:04;11.60;84.60
41756;DHT22;27435;48.480;9.258;2023-03-12T14:01:35;11.70;84.90
41756;DHT22;27435;48.480;9.258;2023-03-12T14:04:07;11.90;85.90
41756;DHT22;27435;48.480;9.258;2023-03-12T14:09:51;12.20;84.80
41756;DHT22;27435;48.480;9.258;2023-03-12T14:15:03;11.90;85.90
41756;DHT22;27435;48.480;9.258;2023-03-12T14:17:33;12.00;86.00
41756;DHT22;27435;48.480;9.258;2023-03-12T14:20:00;11.90;86.80
41756;DHT22;27435;48.480;9.258;2023-03-12T14:22:31;11.90;88.10
41756;DHT22;27435;48.480;9.258;2023-03-12T14:25:05;12.30;87.40
41756;DHT22;27435;48.480;9.258;2023-03-12T14:27:36;12.70;84.60
41756;DHT22;27435;48.480;9.258;2023-03-12T14:32:41;12.20;85.60
41756;DHT22;27435;48.480;9.258;2023-03-12T14:37:43;12.20;85.50
41756;DHT22;27435;48.480;9.258;2023-03-12T14:42:59;11.70;89.00
41756;DHT22;27435;48.480;9.258;2023-03-12T14:45:24;11.50;91.20
41756;DHT22;27435;48.480;9.258;2023-03-12T14:47:56;11.10;94.10
41756;DHT22;27435;48.480;9.258;2023-03-12T14:50:43;10.60;96.00
41756;DHT22;27435;48.480;9.258;2023-03-12T14:53:10;10.30;98.90
41756;DHT22;27435;48.480;9.258;2023-03-12T14:55:36;10.10;99.00
41756;DHT22;27435;48.480;9.258;2023-03-12T14:58:04;10.20;99.00
41756;DHT22;27435;48.480;9.258;2023-03-12T15:00:30;10.20;99.00
41756;DHT22;27435;48.480;9.258;2023-03-12T15:02:58;10.40;99.00
41756;DHT22;27435;48.480;9.258;2023-03-12T15:05:27;10.80;99.00
41756;DHT22;27435;48.480;9.258;2023-03-12T15:07:57;10.80;99.00
41756;DHT22;27435;48.480;9.258;2023-03-12T15:10:28;10.80;99.00
41756;DHT22;27435;48.480;9.258;2023-03-12T15:12:56;11.10;99.00
41756;DHT22;27435;48.480;9.258;2023-03-12T15:15:43;11.60;98.60
41756;DHT22;27435;48.480;9.258;2023-03-12T15:18:26;11.60;97.90
41756;DHT22;27435;48.480;9.258;2023-03-12T15:20:53;11.40;98.70
41756;DHT22;27435;48.480;9.258;2023-03-12T15:23:21;11.50;99.00
41756;DHT22;27435;48.480;9.258;2023-03-12T15:26:07;11.40;99.00
41756;DHT22;27435;48.480;9.258;2023-03-12T15:28:33;11.60;98.70
41756;DHT22;27435;48.480;9.258;2023-03-12T15:33:29;12.40;94.20
41756;DHT22;27435;48.480;9.258;2023-03-12T15:38:47;12.70;92.10
41756;DHT22;27435;48.480;9.258;2023-03-12T15:41:15;13.00;91.00
41756;DHT22;27435;48.480;9.258;2023-03-12T15:43:43;13.20;90.30
41756;DHT22;27435;48.480;9.258;2023-03-12T15:46:10;13.60;88.70
41756;DHT22;27435;48.480;9.258;2023-03-12T15:48:39;13.50;87.40
41756;DHT22;27435;48.480;9.258;2023-03-12T15:51:27;13.00;88.90
41756;DHT22;27435;48.480;9.258;2023-03-12T15:54:00;12.30;91.70
41756;DHT22;27435;48.480;9.258;2023-03-12T15:56:27;11.80;93.10
41756;DHT22;27435;48.480;9.258;2023-03-12T16:01:53;11.50;95.00
41756;DHT22;27435;48.480;9.258;2023-03-12T16:04:20;11.40;94.90
41756;DHT22;27435;48.480;9.258;2023-03-12T16:06:49;11.40;95.10
41756;DHT22;27435;48.480;9.258;2023-03-12T16:11:44;11.40;94.90
41756;DHT22;27435;48.480;9.258;2023-03-12T16:16:39;11.40;94.60
41756;DHT22;27435;48.480;9.258;2023-03-12T16:19:16;11.40;94.40
41756;DHT22;27435;48.480;9.258;2023-03-12T16:21:42;11.30;94.80
41756;DHT22;27435;48.480;9.258;2023-03-12T16:24:09;11.20;94.40
41756;DHT22;27435;48.480;9.258;2023-03-12T16:26:35;11.20;94.10
41756;DHT22;27435;48.480;9.258;2023-03-12T16:29:03;11.20;93.20
41756;DHT22;27435;48.480;9.258;2023-03-12T16:31:29;11.20;91.90
41756;DHT22;27435;48.480;9.258;2023-03-12T16:33:54;11.20;92.90
41756;DHT22;27435;48.480;9.258;2023-03-12T16:36:20;11.10;92.60
41756;DHT22;27435;48.480;9.258;2023-03-12T16:38:46;11.10;91.60
41756;DHT22;27435;48.480;9.258;2023-03-12T16:41:15;11.00;91.70
41756;DHT22;27435;48.480;9.258;2023-03-12T16:43:42;10.90;91.40
41756;DHT22;27435;48.480;9.258;2023-03-12T16:46:09;10.90;91.90
41756;DHT22;27435;48.480;9.258;2023-03-12T16:48:35;10.80;91.90
41756;DHT22;27435;48.480;9.258;2023-03-12T16:51:01;10.70;92.70
41756;DHT22;27435;48.480;9.258;2023-03-12T16:53:27;10.70;92.20
41756;DHT22;27435;48.480;9.258;2023-03-12T16:55:55;10.60;92.50
41756;DHT22;27435;48.480;9.258;2023-03-12T16:58:23;10.60;92.00
41756;DHT22;27435;48.480;9.258;2023-03-12T17:00:50;10.60;90.70
41756;DHT22;27435;48.480;9.258;2023-03-12T17:03:37;10.50;90.50
41756;DHT22;27435;48.480;9.258;2023-03-12T17:06:04;10.50;90.90
41756;DHT22;27435;48.480;9.258;2023-03-12T17:08:30;10.40;90.70
41756;DHT22;27435;48.480;9.258;2023-03-12T17:10:56;10.30;90.00
41756;DHT22;27435;48.480;9.258;2023-03-12T17:13:24;10.20;88.80
41756;DHT22;27435;48.480;9.258;2023-03-12T17:15:50;10.10;88.60
41756;DHT22;27435;48.480;9.258;2023-03-12T17:18:17;10.10;87.40
41756;DHT22;27435;48.480;9.258;2023-03-12T17:20:43;10.10;87.10
41756;DHT22;27435;48.480;9.258;2023-03-12T17:23:09;10.10;87.20
41756;DHT22;27435;48.480;9.258;2023-03-12T17:25:39;10.00;87.20
41756;DHT22;27435;48.480;9.258;2023-03-12T17:28:06;10.00;87.10
41756;DHT22;27435;48.480;9.258;2023-03-12T17:30:32;10.00;87.10
41756;DHT22;27435;48.480;9.258;2023-03-12T17:33:07;10.00;86.60
41756;DHT22;27435;48.480;9.258;2023-03-12T17:35:34;10.00;85.70
41756;DHT22;27435;48.480;9.258;2023-03-12T17:38:00;9.90;86.10
41756;DHT22;27435;48.480;9.258;2023-03-12T17:40:26;9.90;86.60
41756;DHT22;27435;48.480;9.258;2023-03-12T17:42:52;9.90;86.50
41756;DHT22;27435;48.480;9.258;2023-03-12T17:45:20;9.80;86.40
41756;DHT22;27435;48.480;9.258;2023-03-12T17:47:46;9.80;86.00
41756;DHT22;27435;48.480;9.258;2023-03-12T17:50:12;9.70;86.50
41756;DHT22;27435;48.480;9.258;2023-03-12T17:52:38;9.70;86.40
41756;DHT22;27435;48.480;9.258;2023-03-12T17:55:04;9.70;86.50